Time;durP1;ratioP1;P1;durP2;ratioP2;P2;SDS_P1;SDS_P2;PMS_P1;PMS_P2;Temp;Humidity;BMP_temperature;BMP_pressure;BME280_temperature;BME280_humidity;BME280_pressure;Samples;Min_cycle;Max_cycle;Signal;HPM_P1;HPM_P2
2023/10/24 00:00:53;;;;;;;49.20;46.58;;;14.30;99.90;;;;;;4957433;28;20039;-71
2023/10/24 00:03:19;;;;;;;41.72;39.35;;;14.40;99.90;;;;;;4966255;28;20031;-71
2023/10/24 00:05:47;;;;;;;40.13;37.85;;;14.30;99.90;;;;;;4964547;28;20035;-72
2023/10/24 00:08:14;;;;;;;46.03;43.53;;;14.30;99.90;;;;;;4969557;28;20032;-72
2023/10/24 00:10:40;;;;;;;57.05;53.78;;;14.30;99.90;;;;;;4966518;28;20032;-71
2023/10/24 00:13:06;;;;;;;59.60;56.35;;;14.40;99.90;;;;;;4958487;28;20042;-71
2023/10/24 00:15:32;;;;;;;54.88;51.95;;;14.40;99.90;;;;;;4960934;28;20039;-72
2023/10/24 00:17:58;;;;;;;50.22;47.60;;;14.40;99.90;;;;;;4961212;28;20039;-71
2023/10/24 00:20:24;;;;;;;55.42;52.25;;;14.40;99.90;;;;;;4961682;28;20418;-72
2023/10/24 00:22:51;;;;;;;50.35;47.67;;;14.40;99.90;;;;;;4974239;28;20074;-71
2023/10/24 00:25:17;;;;;;;46.33;43.85;;;14.40;99.90;;;;;;4956975;28;20035;-72
2023/10/24 00:27:58;;;;;;;46.28;43.60;;;14.50;99.90;;;;;;4930971;29;20080;-72
2023/10/24 00:30:24;;;;;;;48.25;45.60;;;14.50;99.90;;;;;;4929010;28;20040;-72
2023/10/24 00:32:50;;;;;;;47.20;44.70;;;14.50;99.90;;;;;;4928355;29;20512;-71
2023/10/24 00:35:19;;;;;;;48.42;45.70;;;14.50;99.90;;;;;;4928991;29;20040;-71
2023/10/24 00:37:45;;;;;;;42.88;40.67;;;14.40;99.90;;;;;;4930623;29;20043;-71
2023/10/24 00:40:12;;;;;;;42.55;40.25;;;14.40;99.90;;;;;;4913474;29;20048;-72
2023/10/24 00:42:38;;;;;;;43.75;41.40;;;14.40;99.90;;;;;;4931114;29;20603;-71
2023/10/24 00:45:05;;;;;;;48.45;45.95;;;14.40;99.90;;;;;;4932562;28;20051;-71
2023/10/24 00:47:32;;;;;;;50.53;47.63;;;14.30;99.90;;;;;;4911560;29;20402;-71
2023/10/24 00:49:58;;;;;;;53.80;51.03;;;14.30;99.90;;;;;;4918903;29;20690;-72
2023/10/24 00:52:24;;;;;;;50.25;47.40;;;14.30;99.90;;;;;;4930869;29;20063;-71
2023/10/24 00:54:50;;;;;;;53.38;50.50;;;14.30;99.90;;;;;;4917873;29;20050;-72
2023/10/24 00:57:16;;;;;;;52.22;49.55;;;14.30;99.90;;;;;;4902409;29;20056;-71
2023/10/24 00:59:43;;;;;;;57.72;54.65;;;14.30;99.90;;;;;;4924362;29;20046;-71
2023/10/24 01:02:09;;;;;;;56.10;53.03;;;14.30;99.90;;;;;;4899973;29;20050;-71
2023/10/24 01:04:35;;;;;;;56.95;53.97;;;14.30;99.90;;;;;;4943019;28;20047;-70
2023/10/24 01:07:02;;;;;;;55.00;52.03;;;14.20;99.90;;;;;;4986323;28;20089;-71
2023/10/24 01:09:28;;;;;;;54.33;51.38;;;14.20;99.90;;;;;;4965683;28;20027;-71
2023/10/24 01:11:54;;;;;;;48.85;46.20;;;14.20;99.90;;;;;;4972452;28;20039;-71
2023/10/24 01:14:20;;;;;;;54.67;51.72;;;14.20;99.90;;;;;;4971998;28;20031;-71
2023/10/24 01:16:46;;;;;;;55.58;52.53;;;14.20;99.90;;;;;;4973021;28;20043;-71
2023/10/24 01:19:13;;;;;;;48.88;46.38;;;14.20;99.90;;;;;;4973840;28;20038;-71
2023/10/24 01:21:43;;;;;;;54.80;52.00;;;14.20;99.90;;;;;;4966926;28;20385;-71
2023/10/24 01:24:10;;;;;;;49.95;46.83;;;14.10;99.90;;;;;;4968504;28;20039;-71
2023/10/24 01:26:37;;;;;;;47.33;44.88;;;14.10;99.90;;;;;;4986123;28;20026;-71
2023/10/24 01:29:03;;;;;;;49.60;46.90;;;14.10;99.90;;;;;;4967937;28;20026;-71
2023/10/24 01:31:29;;;;;;;49.78;47.13;;;14.10;99.90;;;;;;4966103;28;20484;-71
2023/10/24 01:33:55;;;;;;;50.40;47.75;;;14.00;99.90;;;;;;4960594;28;20031;-71
2023/10/24 01:36:21;;;;;;;47.53;44.95;;;14.10;99.90;;;;;;4956751;28;20388;-71
2023/10/24 01:38:47;;;;;;;47.95;45.38;;;14.10;99.90;;;;;;4955727;28;20031;-71
2023/10/24 01:41:13;;;;;;;45.28;42.95;;;14.10;99.90;;;;;;4956024;28;20046;-71
2023/10/24 01:43:40;;;;;;;43.60;41.25;;;14.10;99.90;;;;;;4966847;28;20061;-71
2023/10/24 01:46:06;;;;;;;49.65;46.97;;;14.10;99.90;;;;;;4966366;28;20488;-71
2023/10/24 01:48:32;;;;;;;49.13;46.55;;;14.00;99.90;;;;;;4968650;28;20034;-71
2023/10/24 01:50:58;;;;;;;45.45;43.00;;;14.00;99.90;;;;;;4971057;28;20038;-71
2023/10/24 01:53:24;;;;;;;51.17;48.38;;;14.00;99.90;;;;;;4969785;28;20043;-71
2023/10/24 01:55:50;;;;;;;52.85;49.90;;;14.00;99.90;;;;;;4966613;28;20638;-70
2023/10/24 01:58:17;;;;;;;50.00;47.38;;;14.00;99.90;;;;;;4971125;28;20049;-71
2023/10/24 02:00:43;;;;;;;48.78;46.25;;;13.90;99.90;;;;;;4970671;28;20030;-71
2023/10/24 02:03:09;;;;;;;48.20;45.40;;;14.00;99.90;;;;;;4975940;28;20034;-71
2023/10/24 02:05:35;;;;;;;50.47;47.55;;;13.90;99.90;;;;;;4981621;28;20031;-71
2023/10/24 02:08:02;;;;;;;49.97;47.33;;;13.90;99.90;;;;;;4971876;28;20038;-71
2023/10/24 02:10:28;;;;;;;51.55;48.70;;;13.90;99.90;;;;;;4969243;28;20028;-71
2023/10/24 02:12:54;;;;;;;52.72;49.65;;;13.90;99.90;;;;;;4971130;28;20041;-71
2023/10/24 02:15:20;;;;;;;53.25;50.35;;;13.90;99.90;;;;;;4960384;28;20035;-71
2023/10/24 02:17:46;;;;;;;50.45;47.75;;;13.90;99.90;;;;;;4970182;28;20053;-71
2023/10/24 02:20:13;;;;;;;45.58;43.10;;;13.90;99.90;;;;;;4967452;28;20491;-71
2023/10/24 02:22:39;;;;;;;45.42;43.03;;;13.90;99.90;;;;;;4972325;28;20051;-71
2023/10/24 02:25:08;;;;;;;52.22;49.47;;;13.90;99.90;;;;;;4969650;28;20034;-71
2023/10/24 02:27:35;;;;;;;51.65;48.83;;;13.90;99.90;;;;;;4967573;28;20384;-71
2023/10/24 02:30:01;;;;;;;54.22;51.22;;;13.80;99.90;;;;;;4959662;28;20022;-71
2023/10/24 02:32:27;;;;;;;52.08;49.20;;;13.80;99.90;;;;;;4955910;28;20039;-71
2023/10/24 02:34:54;;;;;;;55.92;52.90;;;13.80;99.90;;;;;;4971291;28;20042;-71
2023/10/24 02:37:20;;;;;;;54.13;51.15;;;13.80;99.90;;;;;;4971137;28;20073;-71
2023/10/24 02:39:46;;;;;;;55.40;52.30;;;13.90;99.90;;;;;;4972717;28;20030;-71
2023/10/24 02:42:12;;;;;;;53.03;50.17;;;13.80;99.90;;;;;;4966078;28;20039;-71
2023/10/24 02:44:38;;;;;;;53.00;50.10;;;13.80;99.90;;;;;;4972505;28;20042;-71
2023/10/24 02:47:04;;;;;;;50.40;47.53;;;13.80;99.90;;;;;;4969402;28;20070;-71
2023/10/24 02:49:32;;;;;;;47.97;45.35;;;13.80;99.90;;;;;;4959626;28;20058;-71
2023/10/24 02:51:58;;;;;;;48.40;45.80;;;13.80;99.90;;;;;;4968421;28;20039;-71
2023/10/24 02:54:24;;;;;;;49.42;46.72;;;13.80;99.90;;;;;;4953311;28;20038;-71
2023/10/24 02:56:50;;;;;;;56.67;53.58;;;13.80;99.90;;;;;;4958621;28;20055;-71
2023/10/24 02:59:16;;;;;;;54.60;51.75;;;13.80;99.90;;;;;;4963084;28;20396;-71
2023/10/24 03:01:42;;;;;;;53.80;51.10;;;13.80;99.90;;;;;;4967334;28;20049;-71
2023/10/24 03:04:09;;;;;;;54.38;51.47;;;13.80;99.90;;;;;;4960753;28;20051;-71
2023/10/24 03:06:35;;;;;;;55.60;52.50;;;13.80;99.90;;;;;;4966024;28;20034;-71
2023/10/24 03:09:01;;;;;;;59.67;56.58;;;13.80;99.90;;;;;;4959856;28;20035;-71
2023/10/24 03:11:27;;;;;;;55.85;52.83;;;13.80;99.90;;;;;;4965005;28;20042;-71
2023/10/24 03:13:53;;;;;;;56.97;53.45;;;13.70;99.90;;;;;;4977160;28;20037;-71
2023/10/24 03:16:19;;;;;;;57.45;54.33;;;13.70;99.90;;;;;;4962996;28;20066;-71
2023/10/24 03:18:46;;;;;;;60.50;56.90;;;13.70;99.90;;;;;;4965186;28;20113;-71
2023/10/24 03:21:12;;;;;;;61.38;58.03;;;13.60;99.90;;;;;;4971225;28;20038;-71
2023/10/24 03:23:44;;;;;;;57.00;53.85;;;13.60;99.90;;;;;;4965882;28;20031;-71
2023/10/24 03:26:10;;;;;;;55.20;52.28;;;13.50;99.90;;;;;;4964231;28;20026;-71
2023/10/24 03:28:36;;;;;;;49.25;46.55;;;13.50;99.90;;;;;;4978042;28;20034;-71
2023/10/24 03:31:06;;;;;;;47.00;44.45;;;13.40;99.90;;;;;;4966690;28;20042;-71
2023/10/24 03:33:33;;;;;;;56.92;53.83;;;13.40;99.90;;;;;;4985042;28;20034;-71
2023/10/24 03:35:59;;;;;;;62.65;59.25;;;13.40;99.90;;;;;;4962060;28;20042;-71
2023/10/24 03:38:26;;;;;;;62.63;59.40;;;13.30;99.90;;;;;;4960794;28;20503;-71
2023/10/24 03:40:55;;;;;;;61.63;58.22;;;13.30;99.90;;;;;;4958489;28;20019;-70
2023/10/24 03:43:22;;;;;;;60.58;56.88;;;13.30;99.90;;;;;;4968193;28;20637;-71
2023/10/24 03:45:48;;;;;;;61.50;58.05;;;13.20;99.90;;;;;;4957741;28;20031;-71
2023/10/24 03:48:14;;;;;;;55.38;52.55;;;13.10;99.90;;;;;;4957124;28;20046;-71
2023/10/24 03:50:40;;;;;;;58.50;55.38;;;13.10;99.90;;;;;;4956267;28;20049;-72
2023/10/24 03:53:06;;;;;;;57.25;54.05;;;13.00;99.90;;;;;;4968437;28;20039;-71
2023/10/24 03:55:33;;;;;;;57.72;54.60;;;13.00;99.90;;;;;;4964032;28;20042;-71
2023/10/24 03:57:59;;;;;;;58.80;55.47;;;13.00;99.90;;;;;;4957481;28;20043;-71
2023/10/24 04:00:26;;;;;;;55.42;52.33;;;13.00;99.90;;;;;;4962497;28;20425;-72
2023/10/24 04:02:52;;;;;;;51.15;48.42;;;12.90;99.90;;;;;;4966267;28;20038;-71
2023/10/24 04:05:18;;;;;;;45.80;43.28;;;12.90;99.90;;;;;;4969073;28;20034;-71
2023/10/24 04:07:44;;;;;;;51.40;48.25;;;12.90;99.90;;;;;;4958435;28;20038;-71
2023/10/24 04:10:12;;;;;;;51.67;49.00;;;12.80;99.90;;;;;;4958395;28;20043;-71
2023/10/24 04:12:38;;;;;;;57.88;54.80;;;12.80;99.90;;;;;;4961643;28;20047;-71
2023/10/24 04:15:05;;;;;;;54.85;51.88;;;12.80;99.90;;;;;;4970173;28;20034;-71
2023/10/24 04:17:34;;;;;;;55.88;52.45;;;12.80;99.90;;;;;;4972721;28;20047;-72
2023/10/24 04:20:01;;;;;;;65.40;51.70;;;12.80;99.90;;;;;;4975574;28;20030;-72
2023/10/24 04:22:27;;;;;;;51.58;47.50;;;12.70;99.90;;;;;;4957053;28;20035;-71
2023/10/24 04:24:54;;;;;;;53.08;50.20;;;12.60;99.90;;;;;;4956104;28;20384;-71
2023/10/24 04:27:20;;;;;;;46.75;43.33;;;12.60;99.90;;;;;;4968765;28;20051;-71
2023/10/24 04:29:46;;;;;;;47.92;44.88;;;12.60;99.90;;;;;;4958218;28;20496;-71
2023/10/24 04:32:12;;;;;;;54.85;50.97;;;12.60;99.90;;;;;;4967049;28;20050;-71
2023/10/24 04:34:38;;;;;;;66.38;62.55;;;12.60;99.90;;;;;;4973773;28;20034;-71
2023/10/24 04:37:04;;;;;;;51.55;48.53;;;12.50;99.90;;;;;;4971036;28;20407;-72
2023/10/24 04:39:31;;;;;;;64.68;61.00;;;12.60;99.90;;;;;;4965070;28;20035;-72
2023/10/24 04:41:57;;;;;;;50.50;47.70;;;12.60;99.90;;;;;;4965719;28;20031;-71
2023/10/24 04:44:23;;;;;;;57.00;53.58;;;12.60;99.90;;;;;;4957415;28;20038;-71
2023/10/24 04:46:50;;;;;;;72.50;68.65;;;12.60;99.90;;;;;;4963414;28;20036;-72
2023/10/24 04:49:16;;;;;;;308.52;77.72;;;12.60;99.90;;;;;;4956449;28;20042;-71
2023/10/24 04:51:43;;;;;;;56.83;53.58;;;12.70;99.90;;;;;;4959920;28;20035;-71
2023/10/24 04:54:09;;;;;;;103.95;60.15;;;12.70;99.90;;;;;;4954489;28;20559;-71
2023/10/24 04:56:35;;;;;;;768.72;118.25;;;12.60;99.90;;;;;;4955603;28;20035;-72
2023/10/24 04:59:02;;;;;;;615.25;108.45;;;12.50;99.90;;;;;;4956243;28;20043;-71
2023/10/24 05:01:28;;;;;;;55.75;52.67;;;12.50;99.90;;;;;;4957982;28;20040;-71
2023/10/24 05:03:54;;;;;;;54.15;51.03;;;12.50;99.90;;;;;;4972743;28;20479;-71
2023/10/24 05:06:20;;;;;;;63.50;59.88;;;12.50;99.90;;;;;;4970080;28;20035;-72
2023/10/24 05:08:47;;;;;;;57.22;54.10;;;12.50;99.90;;;;;;4982663;28;20464;-71
2023/10/24 05:11:13;;;;;;;56.92;53.58;;;12.40;99.90;;;;;;4962269;28;20039;-73
2023/10/24 05:13:39;;;;;;;61.65;58.03;;;12.40;99.90;;;;;;4969486;28;20480;-72
2023/10/24 05:16:05;;;;;;;52.88;49.78;;;12.50;99.90;;;;;;4968680;28;20047;-71
2023/10/24 05:18:31;;;;;;;1100.88;160.05;;;12.50;99.90;;;;;;4961669;28;20400;-70
2023/10/24 05:20:57;;;;;;;94.50;53.17;;;12.50;99.90;;;;;;4966329;28;20023;-72
2023/10/24 05:23:23;;;;;;;50.78;47.78;;;12.60;99.90;;;;;;4973418;28;20026;-71
2023/10/24 05:25:52;;;;;;;47.35;44.38;;;12.60;99.90;;;;;;4970083;28;20026;-71
2023/10/24 05:28:18;;;;;;;45.40;42.90;;;12.60;99.90;;;;;;4988018;28;20407;-71
2023/10/24 05:30:45;;;;;;;40.58;38.17;;;12.50;99.90;;;;;;4962756;28;20046;-71
2023/10/24 05:33:11;;;;;;;42.53;39.55;;;12.50;99.90;;;;;;4972100;28;20043;-70
2023/10/24 05:35:37;;;;;;;45.85;43.00;;;12.50;99.90;;;;;;4959060;28;20035;-72
2023/10/24 05:38:03;;;;;;;44.97;42.35;;;12.40;99.90;;;;;;4972948;28;20042;-72
2023/10/24 05:40:30;;;;;;;44.95;42.25;;;12.40;99.90;;;;;;4967642;28;20584;-71
2023/10/24 05:42:56;;;;;;;43.03;40.22;;;12.40;99.90;;;;;;4967038;28;20391;-71
2023/10/24 05:45:23;;;;;;;44.92;42.17;;;12.40;99.90;;;;;;4955000;28;20035;-71
2023/10/24 05:47:49;;;;;;;41.33;39.00;;;12.30;99.90;;;;;;4957711;28;20034;-71
2023/10/24 05:50:17;;;;;;;44.58;41.88;;;12.20;99.90;;;;;;4970795;28;20035;-72
2023/10/24 05:52:43;;;;;;;47.20;44.08;;;12.30;99.90;;;;;;4955645;28;20046;-72
2023/10/24 05:55:09;;;;;;;43.42;40.65;;;12.30;99.90;;;;;;4962258;28;20031;-71
2023/10/24 05:57:35;;;;;;;43.55;40.90;;;12.30;99.90;;;;;;4954787;28;20120;-71
2023/10/24 06:00:02;;;;;;;43.15;40.67;;;12.20;99.90;;;;;;4969405;28;20035;-71
2023/10/24 06:02:28;;;;;;;45.78;43.00;;;12.20;99.90;;;;;;4972130;28;20039;-71
2023/10/24 06:04:54;;;;;;;79.78;50.70;;;12.30;99.90;;;;;;4971646;28;20042;-71
2023/10/24 06:07:20;;;;;;;44.30;41.22;;;12.30;99.90;;;;;;4956394;28;20039;-71
2023/10/24 06:09:46;;;;;;;45.53;43.15;;;12.30;99.90;;;;;;4955164;29;20388;-71
2023/10/24 06:12:13;;;;;;;41.42;39.03;;;12.30;99.90;;;;;;4956825;28;20039;-71
2023/10/24 06:14:39;;;;;;;41.58;39.03;;;12.30;99.90;;;;;;4965429;28;20480;-71
2023/10/24 06:17:05;;;;;;;40.15;37.55;;;12.30;99.90;;;;;;4952996;28;20058;-71
2023/10/24 06:19:33;;;;;;;46.00;43.17;;;12.30;99.90;;;;;;4963368;28;20049;-71
2023/10/24 06:21:59;;;;;;;33.08;30.77;;;12.20;99.90;;;;;;4970257;28;20039;-71
2023/10/24 06:24:25;;;;;;;36.85;34.67;;;12.20;99.90;;;;;;4966647;28;20036;-71
2023/10/24 06:26:51;;;;;;;39.58;37.00;;;12.20;99.90;;;;;;4963582;28;20031;-71
2023/10/24 06:29:17;;;;;;;38.53;35.92;;;12.10;99.90;;;;;;4964743;28;20035;-71
2023/10/24 06:31:43;;;;;;;40.58;38.17;;;12.10;99.90;;;;;;4962348;28;20050;-71
2023/10/24 06:34:09;;;;;;;44.10;41.13;;;12.10;99.90;;;;;;4976567;28;20481;-71
2023/10/24 06:36:36;;;;;;;43.53;40.72;;;12.10;99.90;;;;;;4966243;28;20042;-71
2023/10/24 06:39:05;;;;;;;45.88;43.10;;;12.20;99.90;;;;;;4970094;28;20053;-71
2023/10/24 06:41:32;;;;;;;44.08;41.22;;;12.10;99.90;;;;;;4961013;28;20039;-71
2023/10/24 06:43:58;;;;;;;45.70;42.42;;;12.20;99.90;;;;;;4968940;28;20054;-71
2023/10/24 06:46:24;;;;;;;102.85;46.28;;;12.20;99.90;;;;;;4967799;28;20031;-71
2023/10/24 06:48:52;;;;;;;45.60;42.00;;;12.20;99.90;;;;;;4965541;28;20062;-71
2023/10/24 06:51:18;;;;;;;42.28;39.80;;;12.20;99.90;;;;;;4965941;28;20030;-71
2023/10/24 06:53:44;;;;;;;45.85;43.20;;;12.20;99.90;;;;;;4962900;28;20034;-71
2023/10/24 06:56:10;;;;;;;47.13;44.13;;;12.20;99.90;;;;;;4967464;28;20497;-71
2023/10/24 06:58:37;;;;;;;50.10;47.25;;;12.10;99.90;;;;;;4983215;28;20046;-71
2023/10/24 07:01:03;;;;;;;44.70;41.83;;;12.20;99.90;;;;;;4961286;28;20043;-72
2023/10/24 07:03:30;;;;;;;40.00;36.63;;;12.10;99.90;;;;;;4967656;28;20031;-72
2023/10/24 07:05:56;;;;;;;37.75;35.67;;;12.20;99.90;;;;;;4961947;28;20023;-72
2023/10/24 07:08:22;;;;;;;36.78;34.65;;;12.10;99.90;;;;;;4955350;28;20393;-72
2023/10/24 07:10:48;;;;;;;37.00;34.65;;;12.10;99.90;;;;;;4962589;28;20043;-72
2023/10/24 07:13:14;;;;;;;40.58;38.15;;;12.10;99.90;;;;;;4952921;29;20046;-71
2023/10/24 07:15:40;;;;;;;47.45;44.70;;;12.10;99.90;;;;;;4969571;28;20034;-71
2023/10/24 07:18:06;;;;;;;51.45;48.67;;;12.00;99.90;;;;;;4970166;28;20414;-72
2023/10/24 07:20:36;;;;;;;43.60;41.00;;;12.10;99.90;;;;;;4953162;28;20420;-71
2023/10/24 07:23:03;;;;;;;44.70;41.78;;;12.10;99.90;;;;;;4972176;28;20035;-72
2023/10/24 07:25:29;;;;;;;41.90;38.95;;;12.20;99.90;;;;;;4968826;28;20031;-72
2023/10/24 07:27:57;;;;;;;64.32;60.53;;;12.20;99.90;;;;;;4963737;28;20377;-71
2023/10/24 07:30:24;;;;;;;66.10;62.40;;;12.20;99.90;;;;;;4971235;28;20403;-71
2023/10/24 07:32:50;;;;;;;43.13;34.85;;;12.20;99.90;;;;;;4971945;28;20035;-72
2023/10/24 07:35:17;;;;;;;27.52;25.67;;;12.40;99.90;;;;;;4952793;28;20043;-74
2023/10/24 07:37:43;;;;;;;45.30;42.33;;;12.70;99.90;;;;;;4967612;28;20039;-72
2023/10/24 07:40:09;;;;;;;31.83;29.30;;;13.10;99.90;;;;;;4957976;28;20051;-72
2023/10/24 07:42:35;;;;;;;52.00;48.85;;;13.60;99.90;;;;;;4969554;28;20057;-71
2023/10/24 07:45:01;;;;;;;71.43;67.50;;;14.00;99.90;;;;;;4970155;28;20031;-71
2023/10/24 07:47:27;;;;;;;65.00;61.47;;;14.20;99.90;;;;;;4969903;28;20030;-71
2023/10/24 07:49:57;;;;;;;59.72;56.53;;;14.50;99.90;;;;;;4968302;28;20035;-71
2023/10/24 07:52:23;;;;;;;63.88;60.45;;;14.40;99.90;;;;;;4966169;28;20383;-71
2023/10/24 07:54:49;;;;;;;65.15;61.63;;;14.40;99.90;;;;;;4970007;28;20027;-71
2023/10/24 07:57:15;;;;;;;70.25;66.28;;;14.30;99.90;;;;;;4971791;28;20357;-71
2023/10/24 07:59:41;;;;;;;107.60;101.95;;;14.30;99.90;;;;;;4971024;28;20030;-72
2023/10/24 08:02:07;;;;;;;63.83;60.22;;;14.30;99.90;;;;;;4966232;28;20070;-72
2023/10/24 08:04:34;;;;;;;55.28;51.92;;;14.30;99.90;;;;;;4958104;28;20028;-71
2023/10/24 08:07:03;;;;;;;91.57;86.88;;;14.40;99.90;;;;;;4962691;28;20376;-71
2023/10/24 08:09:29;;;;;;;82.47;78.18;;;14.50;99.90;;;;;;4972037;28;20058;-71
2023/10/24 08:11:55;;;;;;;76.63;72.25;;;14.50;99.90;;;;;;4964605;28;20412;-71
2023/10/24 08:14:21;;;;;;;93.53;88.72;;;14.60;99.90;;;;;;4950568;29;20039;-72
2023/10/24 08:16:47;;;;;;;78.57;74.18;;;14.50;99.90;;;;;;4963348;28;20047;-71
2023/10/24 08:19:13;;;;;;;91.75;86.88;;;14.50;99.90;;;;;;4972274;28;20049;-72
2023/10/24 08:21:39;;;;;;;92.72;87.65;;;14.50;99.90;;;;;;4968870;28;20046;-71
2023/10/24 08:24:06;;;;;;;95.25;90.32;;;14.60;99.90;;;;;;4967554;28;21395;-72
2023/10/24 08:26:32;;;;;;;99.88;94.07;;;14.60;99.90;;;;;;4963002;28;20058;-71
2023/10/24 08:28:58;;;;;;;95.05;89.95;;;14.60;99.90;;;;;;4961338;28;20042;-71
2023/10/24 08:31:24;;;;;;;99.75;94.65;;;14.70;99.90;;;;;;4962408;28;20038;-72
2023/10/24 08:33:50;;;;;;;90.53;85.47;;;14.70;99.90;;;;;;4963797;28;20535;-69
2023/10/24 08:36:17;;;;;;;76.93;72.80;;;14.60;99.90;;;;;;4961963;28;20031;-71
2023/10/24 08:38:43;;;;;;;83.50;79.07;;;14.60;99.90;;;;;;4965958;28;20484;-71
2023/10/24 08:41:09;;;;;;;85.60;80.63;;;14.70;99.90;;;;;;4978677;28;20046;-72
2023/10/24 08:43:35;;;;;;;73.75;69.70;;;14.70;99.90;;;;;;4951589;28;20424;-71
2023/10/24 08:46:01;;;;;;;83.93;78.97;;;14.80;99.90;;;;;;4966947;28;20031;-71
2023/10/24 08:48:27;;;;;;;80.78;76.30;;;14.80;99.90;;;;;;4951691;29;20068;-72
2023/10/24 08:50:54;;;;;;;85.63;81.22;;;14.90;99.90;;;;;;4947872;29;20023;-71
2023/10/24 08:53:20;;;;;;;83.00;78.22;;;14.90;99.90;;;;;;4966975;28;20487;-71
2023/10/24 08:55:50;;;;;;;84.35;79.78;;;14.80;99.90;;;;;;4971430;28;20035;-71
2023/10/24 08:58:16;;;;;;;92.13;87.22;;;14.90;99.90;;;;;;4969853;28;20070;-71
2023/10/24 09:00:43;;;;;;;92.20;87.38;;;15.00;99.90;;;;;;4959216;28;20042;-71
2023/10/24 09:03:10;;;;;;;103.00;97.72;;;15.10;99.90;;;;;;4968015;28;20039;-71
2023/10/24 09:05:36;;;;;;;103.63;97.97;;;15.10;99.90;;;;;;4970656;28;20035;-71
2023/10/24 09:08:02;;;;;;;126.10;119.90;;;15.20;99.90;;;;;;4956514;28;20043;-71
2023/10/24 09:10:28;;;;;;;137.13;129.13;;;15.20;99.90;;;;;;4969649;28;20035;-71
2023/10/24 09:12:54;;;;;;;181.20;171.40;;;15.30;99.90;;;;;;4971016;28;20043;-71
2023/10/24 09:15:20;;;;;;;134.93;128.00;;;15.40;99.90;;;;;;4988347;28;20046;-71
2023/10/24 09:17:47;;;;;;;154.38;146.70;;;15.40;99.90;;;;;;4975035;28;20385;-71
2023/10/24 09:20:13;;;;;;;106.00;100.55;;;15.50;99.90;;;;;;4958647;28;20051;-71
2023/10/24 09:22:41;;;;;;;172.45;163.93;;;15.50;99.90;;;;;;4965088;28;20038;-71
2023/10/24 09:25:08;;;;;;;145.80;138.48;;;15.60;99.90;;;;;;4964697;28;20050;-72
2023/10/24 09:27:34;;;;;;;133.48;126.72;;;15.60;99.90;;;;;;4958581;28;20047;-72
2023/10/24 09:30:12;;;;;;;154.95;146.55;;;15.70;99.90;;;;;;4964195;28;20053;-72
2023/10/24 09:32:40;;;;;;;122.45;116.25;;;15.70;99.90;;;;;;4945036;28;20043;-72
2023/10/24 09:35:06;;;;;;;156.25;148.52;;;15.80;99.90;;;;;;4957137;28;20054;-71
2023/10/24 09:37:33;;;;;;;149.07;141.57;;;15.80;99.90;;;;;;4968988;28;20038;-72
2023/10/24 09:40:00;;;;;;;142.20;134.93;;;15.90;99.90;;;;;;4969256;28;20043;-71
2023/10/24 09:42:31;;;;;;;158.07;150.05;;;16.00;99.90;;;;;;4964219;28;20511;-72
2023/10/24 09:45:00;;;;;;;158.18;150.07;;;16.00;99.90;;;;;;4972283;28;20478;-72
2023/10/24 09:47:26;;;;;;;178.13;169.52;;;16.00;99.90;;;;;;4960732;28;20603;-72
2023/10/24 09:49:53;;;;;;;174.43;165.43;;;15.90;99.90;;;;;;4972933;28;20035;-72
2023/10/24 09:52:20;;;;;;;184.00;174.55;;;16.00;99.90;;;;;;4951489;28;20035;-72
2023/10/24 09:54:48;;;;;;;182.30;173.23;;;16.00;99.90;;;;;;4962630;28;20046;-73
2023/10/24 09:57:19;;;;;;;213.48;202.45;;;16.10;99.90;;;;;;4959201;28;20027;-72
2023/10/24 09:59:52;;;;;;;181.15;172.02;;;16.10;99.90;;;;;;4957990;28;20038;-72
2023/10/24 10:02:19;;;;;;;185.68;176.10;;;16.00;99.90;;;;;;4952247;28;20042;-72
2023/10/24 10:04:49;;;;;;;184.10;175.30;;;16.00;99.90;;;;;;4967343;28;20037;-72
2023/10/24 10:07:16;;;;;;;276.88;262.10;;;16.00;99.90;;;;;;4940335;28;20050;-72
2023/10/24 10:09:46;;;;;;;155.95;148.35;;;16.10;99.90;;;;;;4969902;28;20031;-73
2023/10/24 10:12:13;;;;;;;218.50;207.85;;;16.20;99.90;;;;;;4983949;28;20031;-73
2023/10/24 10:15:00;;;;;;;223.57;211.77;;;16.20;99.90;;;;;;4967309;28;20058;-73
2023/10/24 10:17:49;;;;;;;211.63;201.07;;;16.20;99.90;;;;;;4971460;28;20403;-73
2023/10/24 10:20:22;;;;;;;102.45;97.15;;;16.30;99.90;;;;;;4971161;28;20054;-73
2023/10/24 10:23:09;;;;;;;134.20;127.43;;;16.30;99.90;;;;;;4954484;28;20396;-73
2023/10/24 10:25:52;;;;;;;152.70;145.05;;;16.30;99.90;;;;;;4964523;28;20119;-74
2023/10/24 10:28:45;;;;;;;79.85;75.63;;;16.30;99.90;;;;;;4973404;28;20034;-74
2023/10/24 10:31:23;;;;;;;87.90;83.35;;;16.30;99.90;;;;;;4966894;28;20043;-74
2023/10/24 10:33:50;;;;;;;130.63;123.93;;;16.40;99.90;;;;;;4970366;28;20038;-74
2023/10/24 10:36:17;;;;;;;87.07;82.55;;;16.40;99.90;;;;;;4968645;28;20039;-74
2023/10/24 10:38:47;;;;;;;88.75;84.15;;;16.50;99.90;;;;;;4955028;28;20050;-74
2023/10/24 10:41:22;;;;;;;125.40;118.15;;;16.50;99.90;;;;;;4954199;28;20046;-73
2023/10/24 10:43:48;;;;;;;130.60;123.75;;;16.50;99.90;;;;;;4963905;28;20404;-74
2023/10/24 10:46:16;;;;;;;150.77;142.60;;;16.50;99.90;;;;;;4956503;28;20034;-75
2023/10/24 10:48:42;;;;;;;145.65;138.05;;;16.60;99.90;;;;;;4964327;28;20380;-74
2023/10/24 10:51:13;;;;;;;140.70;133.23;;;16.50;99.90;;;;;;4951785;28;20027;-74
2023/10/24 10:54:04;;;;;;;130.23;123.53;;;16.50;99.90;;;;;;4964062;28;20602;-74
2023/10/24 10:56:31;;;;;;;142.05;134.75;;;16.50;99.90;;;;;;4962536;28;20027;-74
2023/10/24 10:59:06;;;;;;;100.53;95.32;;;16.50;99.90;;;;;;4953283;29;20051;-74
2023/10/24 11:01:45;;;;;;;123.90;117.57;;;16.50;99.90;;;;;;4964384;28;20031;-74
2023/10/24 11:04:14;;;;;;;99.13;93.75;;;16.60;99.90;;;;;;4970471;28;20503;-74
2023/10/24 11:06:54;;;;;;;136.18;128.75;;;16.70;99.90;;;;;;4944309;28;20046;-74
2023/10/24 11:09:20;;;;;;;93.07;88.35;;;16.70;99.90;;;;;;4970912;28;20364;-74
2023/10/24 11:11:47;;;;;;;145.15;137.20;;;16.70;99.90;;;;;;4962635;28;20031;-75
2023/10/24 11:14:14;;;;;;;114.80;108.75;;;16.70;99.90;;;;;;4956235;28;20503;-74
2023/10/24 11:16:41;;;;;;;112.70;106.75;;;16.60;99.90;;;;;;4947549;28;20094;-74
2023/10/24 11:19:16;;;;;;;96.25;91.18;;;16.50;99.90;;;;;;4967088;28;20027;-75
2023/10/24 11:21:45;;;;;;;91.95;87.28;;;16.50;99.90;;;;;;4952064;28;20043;-74
2023/10/24 11:24:14;;;;;;;102.72;97.13;;;16.50;99.90;;;;;;4963877;28;20031;-74
2023/10/24 11:26:40;;;;;;;124.93;118.45;;;16.70;99.90;;;;;;4967025;28;20042;-74
2023/10/24 11:29:06;;;;;;;111.40;105.57;;;16.80;99.90;;;;;;4972276;28;20039;-74
2023/10/24 11:31:32;;;;;;;92.57;87.80;;;16.80;99.90;;;;;;4958294;28;20039;-74
2023/10/24 11:33:58;;;;;;;93.65;88.93;;;16.90;99.90;;;;;;4967185;28;20045;-74
2023/10/24 11:36:25;;;;;;;96.18;91.32;;;16.90;99.90;;;;;;4964693;28;20035;-75
2023/10/24 11:38:51;;;;;;;105.30;99.97;;;16.90;99.90;;;;;;4962088;28;20070;-75
2023/10/24 11:41:17;;;;;;;98.03;92.95;;;17.00;99.90;;;;;;4960465;28;20026;-73
2023/10/24 11:43:45;;;;;;;120.45;114.10;;;17.00;99.90;;;;;;4964712;28;20139;-72
2023/10/24 11:46:11;;;;;;;101.55;96.00;;;17.00;99.90;;;;;;4961574;28;20132;-73
2023/10/24 11:48:37;;;;;;;98.25;93.28;;;17.00;99.90;;;;;;4962063;28;20035;-72
2023/10/24 11:51:03;;;;;;;148.98;141.45;;;16.90;99.90;;;;;;4959695;28;20041;-71
2023/10/24 11:53:30;;;;;;;115.32;109.38;;;16.90;99.90;;;;;;4971127;28;20042;-71
2023/10/24 11:55:56;;;;;;;102.22;96.97;;;16.90;99.90;;;;;;4971118;28;20030;-71
2023/10/24 11:58:23;;;;;;;108.78;103.05;;;17.00;99.90;;;;;;4969935;28;20028;-71
2023/10/24 12:00:49;;;;;;;110.10;104.38;;;17.10;99.90;;;;;;4957147;28;20403;-71
2023/10/24 12:03:15;;;;;;;108.28;102.43;;;17.10;99.90;;;;;;4959436;28;20034;-71
2023/10/24 12:05:55;;;;;;;110.53;104.85;;;17.10;99.90;;;;;;4957012;28;20019;-71
2023/10/24 12:08:24;;;;;;;107.80;102.10;;;17.10;99.90;;;;;;4952719;29;20031;-71
2023/10/24 12:10:54;;;;;;;134.55;127.53;;;17.00;99.90;;;;;;4951315;28;20039;-71
2023/10/24 12:13:22;;;;;;;123.15;116.82;;;17.10;99.90;;;;;;4960172;28;20038;-71
2023/10/24 12:15:48;;;;;;;96.15;91.10;;;17.00;99.90;;;;;;4969837;28;20042;-70
2023/10/24 12:18:15;;;;;;;106.38;100.75;;;17.00;99.90;;;;;;4953991;28;20031;-70
2023/10/24 12:20:41;;;;;;;114.20;108.28;;;17.00;99.90;;;;;;4951661;28;20043;-71
2023/10/24 12:23:07;;;;;;;124.78;118.50;;;16.90;99.90;;;;;;4956231;28;20061;-70